Time;durP1;ratioP1;P1;durP2;ratioP2;P2;SDS_P1;SDS_P2;PMS_P1;PMS_P2;Temp;Humidity;BMP_temperature;BMP_pressure;BME280_temperature;BME280_humidity;BME280_pressure;Samples;Min_cycle;Max_cycle;Signal;HPM_P1;HPM_P2
2021/06/19 00:02:10;;;;;;;8.35;2.50;;;;;;;18.90;75.57;99813.76;1674120;84;21167;-71
2021/06/19 00:04:37;;;;;;;7.30;2.45;;;;;;;18.89;75.63;99818.52;1642870;86;20940;-71
2021/06/19 00:07:04;;;;;;;5.00;2.17;;;;;;;18.86;75.95;99806.73;1676826;84;20957;-72
2021/06/19 00:09:37;;;;;;;8.08;2.90;;;;;;;18.83;76.01;99806.65;1677437;84;21035;-72
2021/06/19 00:12:07;;;;;;;9.85;2.40;;;;;;;18.77;76.19;99806.12;1688608;84;20967;-72
2021/06/19 00:14:34;;;;;;;6.15;2.35;;;;;;;18.73;76.32;99803.27;1669094;84;21095;-72
2021/06/19 00:17:01;;;;;;;7.05;2.17;;;;;;;18.72;76.44;99804.44;1661536;84;21115;-72
2021/06/19 00:19:27;;;;;;;5.40;2.37;;;;;;;18.71;76.38;99802.02;1679125;84;21426;-72
2021/06/19 00:21:55;;;;;;;5.10;1.70;;;;;;;18.67;76.42;99806.11;1672735;84;21101;-72
2021/06/19 00:24:22;;;;;;;11.65;2.10;;;;;;;18.64;76.59;99800.47;1668780;84;21542;-72
2021/06/19 00:26:50;;;;;;;6.90;2.12;;;;;;;18.62;76.56;99801.42;1618431;86;21156;-71
2021/06/19 00:29:17;;;;;;;8.03;2.40;;;;;;;18.62;76.42;99797.25;1669341;84;20958;-71
2021/06/19 00:31:45;;;;;;;8.63;2.40;;;;;;;18.62;76.38;99795.86;1660992;84;21597;-71
2021/06/19 00:34:12;;;;;;;5.58;2.58;;;;;;;18.61;76.27;99791.47;1674143;84;21018;-71
2021/06/19 00:36:39;;;;;;;6.78;2.60;;;;;;;18.58;76.23;99794.36;1679153;84;20949;-72
2021/06/19 00:39:06;;;;;;;11.18;2.47;;;;;;;18.56;76.27;99792.53;1667765;84;21844;-72
2021/06/19 00:41:34;;;;;;;4.50;2.22;;;;;;;18.56;76.24;99793.11;1681860;84;21000;-70
2021/06/19 00:44:06;;;;;;;5.33;1.92;;;;;;;18.53;76.31;99787.69;1681743;84;21015;-70
2021/06/19 00:46:32;;;;;;;3.97;2.40;;;;;;;18.50;76.40;99793.97;1665964;84;20996;-71
2021/06/19 00:48:59;;;;;;;10.38;2.17;;;;;;;18.47;76.41;99795.54;1672140;84;20879;-72
2021/06/19 00:51:25;;;;;;;7.25;3.27;;;;;;;18.43;76.55;99800.20;1672609;84;21119;-71
2021/06/19 00:53:52;;;;;;;4.55;1.80;;;;;;;18.41;76.64;99796.18;1665513;84;20971;-71
2021/06/19 00:56:18;;;;;;;9.53;2.00;;;;;;;18.36;76.87;99802.82;1656315;84;21033;-70
2021/06/19 00:58:44;;;;;;;4.22;2.02;;;;;;;18.34;77.08;99802.37;1678222;84;20995;-72
2021/06/19 01:01:11;;;;;;;4.60;2.17;;;;;;;18.32;77.31;99806.69;1661577;84;21025;-72
2021/06/19 01:03:37;;;;;;;3.83;1.80;;;;;;;18.31;77.46;99804.48;1632787;85;21751;-71
2021/06/19 01:06:04;;;;;;;8.60;2.33;;;;;;;18.30;77.47;99802.87;1691030;84;20901;-70
2021/06/19 01:08:31;;;;;;;12.65;2.05;;;;;;;18.30;77.59;99802.07;1693558;84;21550;-70
2021/06/19 01:10:59;;;;;;;7.10;2.08;;;;;;;18.31;77.74;99809.23;1678959;84;20961;-71
2021/06/19 01:13:26;;;;;;;5.90;2.08;;;;;;;18.29;77.90;99799.06;1685704;84;20978;-71
2021/06/19 01:15:54;;;;;;;3.42;1.85;;;;;;;18.27;77.97;99795.27;1666940;84;21051;-71
2021/06/19 01:18:20;;;;;;;7.40;2.22;;;;;;;18.27;77.85;99795.84;1679356;84;21034;-71
2021/06/19 01:20:48;;;;;;;6.92;2.58;;;;;;;18.25;77.72;99796.79;1672007;84;21078;-71
2021/06/19 01:23:15;;;;;;;5.83;1.92;;;;;;;18.23;77.96;99790.20;1648547;85;21052;-71
2021/06/19 01:25:42;;;;;;;4.95;2.10;;;;;;;18.20;77.88;99790.92;1654704;84;21045;-71
2021/06/19 01:28:11;;;;;;;6.42;1.90;;;;;;;18.19;77.89;99792.67;1657970;84;21121;-70
2021/06/19 01:30:39;;;;;;;5.45;2.17;;;;;;;18.18;77.92;99794.64;1661883;85;21514;-70
2021/06/19 01:33:08;;;;;;;5.22;2.20;;;;;;;18.17;78.00;99790.84;1663671;84;21017;-71
2021/06/19 01:35:36;;;;;;;5.40;2.00;;;;;;;18.16;78.00;99794.20;1643745;84;20941;-70
2021/06/19 01:38:04;;;;;;;4.58;2.02;;;;;;;18.15;78.09;99789.81;1685676;84;21014;-70
2021/06/19 01:40:31;;;;;;;7.08;2.20;;;;;;;18.17;77.99;99794.42;1623676;87;21151;-70
2021/06/19 01:42:59;;;;;;;7.12;2.20;;;;;;;18.19;78.06;99789.89;1672525;84;21754;-70
2021/06/19 01:45:31;;;;;;;3.47;1.70;;;;;;;18.21;78.21;99795.31;1648927;85;20879;-70
2021/06/19 01:48:04;;;;;;;13.72;2.58;;;;;;;18.23;78.23;99790.20;1684629;84;21291;-70
2021/06/19 01:50:31;;;;;;;10.28;2.55;;;;;;;18.25;78.17;99787.06;1694420;84;20941;-70
2021/06/19 01:52:59;;;;;;;13.58;2.47;;;;;;;18.26;78.13;99786.70;1664655;84;21054;-70
2021/06/19 01:55:25;;;;;;;6.33;2.33;;;;;;;18.28;77.93;99789.92;1670991;84;21491;-70
2021/06/19 01:57:53;;;;;;;8.63;2.75;;;;;;;18.29;77.87;99797.09;1690598;84;21037;-70
2021/06/19 02:00:32;;;;;;;17.70;3.17;;;;;;;18.31;77.90;99796.16;1676494;84;21029;-70
2021/06/19 02:02:58;;;;;;;9.45;1.87;;;;;;;18.32;77.88;99798.34;1665214;84;21463;-71
2021/06/19 02:05:25;;;;;;;8.35;2.40;;;;;;;18.33;77.75;99791.62;1675177;84;21058;-70
2021/06/19 02:08:00;;;;;;;5.37;2.35;;;;;;;18.37;77.76;99796.68;1671571;85;21013;-70
2021/06/19 02:10:31;;;;;;;14.68;2.42;;;;;;;18.40;77.58;99800.12;1655009;84;20951;-71
2021/06/19 02:12:59;;;;;;;7.40;2.42;;;;;;;18.41;77.40;99794.79;1653426;84;21233;-71
2021/06/19 02:15:27;;;;;;;3.75;1.65;;;;;;;18.43;77.21;99800.20;1677330;84;20963;-70
2021/06/19 02:17:56;;;;;;;8.20;2.37;;;;;;;18.46;77.14;99797.29;1652452;86;21155;-70
2021/06/19 02:20:25;;;;;;;8.05;2.00;;;;;;;18.47;76.94;99799.70;1664963;84;21493;-70
2021/06/19 02:22:51;;;;;;;8.98;2.60;;;;;;;18.49;76.94;99795.95;1670268;84;20969;-70
2021/06/19 02:25:26;;;;;;;9.70;2.15;;;;;;;18.52;76.80;99792.23;1665715;84;21007;-71
2021/06/19 02:27:57;;;;;;;8.35;2.33;;;;;;;18.52;76.83;99792.23;1671557;84;21030;-71
2021/06/19 02:30:28;;;;;;;6.40;2.08;;;;;;;18.51;77.06;99791.42;1658182;84;21172;-71
2021/06/19 02:32:55;;;;;;;9.03;2.05;;;;;;;18.54;77.16;99795.45;1669234;84;21127;-71
2021/06/19 02:35:24;;;;;;;6.22;2.17;;;;;;;18.55;77.04;99797.86;1669109;84;21028;-71
2021/06/19 02:37:51;;;;;;;4.05;2.05;;;;;;;18.56;76.95;99801.45;1689767;84;20906;-71
2021/06/19 02:40:17;;;;;;;4.95;2.08;;;;;;;18.56;76.93;99805.03;1691211;84;20875;-71
2021/06/19 02:42:44;;;;;;;7.42;2.33;;;;;;;18.57;77.03;99800.28;1681763;84;21109;-71
2021/06/19 02:45:12;;;;;;;10.15;2.12;;;;;;;18.58;76.93;99798.53;1677139;84;20957;-71
2021/06/19 02:47:46;;;;;;;6.92;2.62;;;;;;;18.61;76.82;99797.03;1662700;84;22544;-70
2021/06/19 02:50:14;;;;;;;7.70;1.90;;;;;;;18.62;76.80;99800.03;1681399;84;20953;-70
2021/06/19 02:52:42;;;;;;;7.20;2.12;;;;;;;18.62;76.98;99797.25;1653393;84;21031;-70
2021/06/19 02:55:12;;;;;;;9.80;2.12;;;;;;;18.64;76.99;99794.33;1662523;84;21813;-70
2021/06/19 02:57:39;;;;;;;7.08;2.27;;;;;;;18.66;76.81;99792.58;1670039;84;21140;-70
2021/06/19 03:00:08;;;;;;;8.05;2.27;;;;;;;18.67;76.72;99798.36;1681070;84;20968;-70
2021/06/19 03:02:35;;;;;;;14.58;1.95;;;;;;;18.70;76.70;99796.23;1683945;84;20894;-70
2021/06/19 03:05:01;;;;;;;7.33;2.25;;;;;;;18.74;76.75;99808.25;1683479;84;21096;-70
2021/06/19 03:07:27;;;;;;;5.12;2.30;;;;;;;18.75;76.57;99802.32;1642419;85;21119;-70
2021/06/19 03:09:54;;;;;;;8.68;2.27;;;;;;;18.76;76.11;99809.50;1649459;84;20986;-70
2021/06/19 03:12:20;;;;;;;4.25;2.08;;;;;;;18.77;76.53;99811.11;1676492;84;21442;-70
2021/06/19 03:14:49;;;;;;;10.55;2.30;;;;;;;18.78;76.36;99814.11;1662706;84;20913;-70
2021/06/19 03:17:16;;;;;;;5.78;2.00;;;;;;;18.80;76.50;99811.77;1675263;84;20947;-71
2021/06/19 03:19:44;;;;;;;11.60;2.35;;;;;;;18.83;76.54;99817.19;1671738;84;21097;-71
2021/06/19 03:22:10;;;;;;;10.55;2.27;;;;;;;18.85;76.34;99806.50;1660333;84;21061;-71
2021/06/19 03:24:39;;;;;;;14.05;2.42;;;;;;;18.84;76.28;99811.84;1643168;85;20959;-71
2021/06/19 03:27:08;;;;;;;12.45;2.58;;;;;;;18.86;76.36;99817.05;1648311;86;21000;-71
2021/06/19 03:29:35;;;;;;;4.87;2.33;;;;;;;18.87;76.76;99817.27;1642363;86;21159;-71
2021/06/19 03:32:04;;;;;;;6.67;2.80;;;;;;;18.87;76.72;99815.29;1650604;85;21563;-71
2021/06/19 03:34:32;;;;;;;7.53;2.58;;;;;;;18.89;76.62;99819.91;1649753;86;21012;-71
2021/06/19 03:36:59;;;;;;;9.63;2.35;;;;;;;18.90;76.67;99821.52;1663432;85;20914;-72
2021/06/19 03:39:28;;;;;;;10.85;2.52;;;;;;;18.92;77.05;99828.91;1588803;88;21158;-71
2021/06/19 03:41:55;;;;;;;8.68;2.33;;;;;;;18.95;77.23;99821.81;1620211;87;21566;-71
2021/06/19 03:44:23;;;;;;;5.78;2.17;;;;;;;18.98;77.28;99826.64;1618910;87;21137;-71
2021/06/19 03:46:50;;;;;;;10.75;2.87;;;;;;;19.01;77.04;99823.94;1608650;88;21046;-71
2021/06/19 03:49:16;;;;;;;7.87;2.35;;;;;;;19.06;77.18;99827.02;1600507;88;22389;-71
2021/06/19 03:51:43;;;;;;;8.13;2.52;;;;;;;19.12;77.01;99826.92;1609128;87;21559;-71
2021/06/19 03:54:10;;;;;;;9.78;2.52;;;;;;;19.19;77.00;99824.87;1591799;89;21019;-72
2021/06/19 03:56:36;;;;;;;6.55;2.58;;;;;;;19.24;76.66;99819.01;1565891;90;21835;-72
2021/06/19 03:59:02;;;;;;;6.97;2.35;;;;;;;19.28;76.54;99825.45;1605267;88;20979;-72
2021/06/19 04:01:29;;;;;;;7.17;2.52;;;;;;;19.32;76.81;99822.16;1584541;89;20989;-71
2021/06/19 04:03:56;;;;;;;5.05;1.92;;;;;;;19.35;76.45;99825.59;1604041;88;20963;-72
2021/06/19 04:06:22;;;;;;;5.12;2.50;;;;;;;19.41;76.50;99821.34;1606864;88;21079;-72
2021/06/19 04:08:50;;;;;;;9.23;2.30;;;;;;;19.46;76.58;99823.83;1604237;88;21553;-72
2021/06/19 04:11:16;;;;;;;5.05;2.50;;;;;;;19.57;76.27;99819.30;1596449;88;20877;-72
2021/06/19 04:13:44;;;;;;;7.20;2.30;;;;;;;19.67;75.77;99822.03;1609536;88;20982;-72
2021/06/19 04:16:11;;;;;;;10.80;2.30;;;;;;;19.71;75.78;99823.71;1602728;88;20984;-72
2021/06/19 04:18:38;;;;;;;4.12;1.80;;;;;;;19.73;75.32;99821.36;1602309;89;21495;-70
2021/06/19 04:21:06;;;;;;;5.97;2.12;;;;;;;19.76;75.32;99823.41;1598357;88;21140;-71
2021/06/19 04:23:33;;;;;;;7.95;2.45;;;;;;;19.78;75.54;99829.41;1592225;88;20955;-71
2021/06/19 04:26:01;;;;;;;9.98;2.10;;;;;;;19.82;75.36;99831.45;1587512;88;21031;-72
2021/06/19 04:28:29;;;;;;;12.07;2.40;;;;;;;19.87;75.58;99833.34;1601832;88;20991;-71
2021/06/19 04:30:59;;;;;;;4.33;2.10;;;;;;;19.94;75.36;99826.51;1603717;87;21054;-71
2021/06/19 04:33:24;;;;;;;10.03;2.30;;;;;;;20.04;75.12;99826.48;1610075;87;21114;-71
2021/06/19 04:35:51;;;;;;;11.48;2.35;;;;;;;20.13;74.54;99817.27;1619306;87;21093;-71
2021/06/19 04:38:17;;;;;;;6.33;1.90;;;;;;;20.26;73.83;99816.45;1610776;87;20972;-73
2021/06/19 04:40:58;;;;;;;8.50;2.10;;;;;;;20.37;73.17;99817.43;1622421;87;20967;-70
2021/06/19 04:43:13;;;;;;;5.35;2.30;;;;;;;20.46;72.58;99822.77;1623379;87;20944;-71
2021/06/19 04:45:40;;;;;;;6.85;2.90;;;;;;;20.49;72.32;99820.63;1616207;88;21552;-72
2021/06/19 04:48:07;;;;;;;8.05;2.27;;;;;;;20.55;72.97;99825.51;1629328;86;20884;-72
2021/06/19 04:50:35;;;;;;;6.92;2.17;;;;;;;20.69;72.94;99821.53;1616571;87;21023;-71
2021/06/19 04:53:02;;;;;;;5.95;2.02;;;;;;;20.82;72.26;99820.69;1611472;87;21557;-72
2021/06/19 04:55:29;;;;;;;8.60;1.87;;;;;;;20.90;71.55;99830.77;1610494;87;21526;-70
2021/06/19 04:57:57;;;;;;;4.90;2.00;;;;;;;20.92;70.99;99828.99;1619038;87;21954;-71
2021/06/19 05:00:25;;;;;;;6.60;1.82;;;;;;;20.94;71.30;99830.22;1624928;87;21458;-71
2021/06/19 05:02:52;;;;;;;5.25;2.47;;;;;;;21.04;71.48;99834.34;1622477;87;20998;-71
2021/06/19 05:05:18;;;;;;;13.05;2.33;;;;;;;21.19;71.64;99832.53;1622138;87;20959;-71
2021/06/19 05:07:45;;;;;;;9.65;2.22;;;;;;;21.34;70.45;99825.97;1600729;88;20916;-71
2021/06/19 05:10:12;;;;;;;6.87;2.40;;;;;;;21.49;69.59;99829.70;1595777;88;21521;-71
2021/06/19 05:12:43;;;;;;;9.28;2.17;;;;;;;21.59;69.27;99819.23;1603496;89;20920;-71
2021/06/19 05:15:10;;;;;;;6.20;2.05;;;;;;;21.66;69.00;99825.70;1591645;89;21139;-70
2021/06/19 05:17:38;;;;;;;13.45;2.08;;;;;;;21.66;68.38;99820.11;1615156;86;21024;-76
2021/06/19 05:20:06;;;;;;;11.93;2.50;;;;;;;21.62;68.16;99825.45;1625254;87;21586;-72
2021/06/19 05:22:33;;;;;;;7.60;2.22;;;;;;;21.59;68.37;99828.42;1629132;88;21127;-70
2021/06/19 05:25:01;;;;;;;5.47;1.87;;;;;;;21.62;69.77;99826.85;1626499;87;20964;-70
2021/06/19 05:27:28;;;;;;;5.42;2.05;;;;;;;21.70;69.25;99829.34;1597766;87;21466;-69
2021/06/19 05:29:54;;;;;;;5.55;2.22;;;;;;;21.80;68.58;99831.23;1642690;86;21002;-71
2021/06/19 05:32:22;;;;;;;6.28;1.90;;;;;;;21.90;67.02;99824.94;1641009;86;21018;-71
2021/06/19 05:34:50;;;;;;;5.58;1.98;;;;;;;21.95;67.74;99834.37;1643309;86;21182;-70
2021/06/19 05:37:18;;;;;;;9.45;2.08;;;;;;;22.02;67.32;99833.04;1645820;86;21030;-72
2021/06/19 05:39:44;;;;;;;9.35;2.37;;;;;;;22.10;67.45;99832.51;1614488;87;21007;-71
2021/06/19 05:42:11;;;;;;;6.00;1.82;;;;;;;22.14;66.78;99832.75;1644847;86;21172;-71
2021/06/19 05:44:37;;;;;;;4.53;1.95;;;;;;;22.15;67.73;99834.95;1643348;86;21150;-72
2021/06/19 05:47:06;;;;;;;6.28;1.87;;;;;;;22.19;68.69;99837.98;1661359;86;21585;-71
2021/06/19 05:49:32;;;;;;;5.67;1.98;;;;;;;22.30;68.44;99837.48;1631289;86;21512;-72
2021/06/19 05:51:59;;;;;;;3.98;2.00;;;;;;;22.42;65.54;99834.97;1647724;86;21082;-71
2021/06/19 05:54:25;;;;;;;11.25;3.15;;;;;;;22.46;63.75;99840.59;1642767;86;21151;-71
2021/06/19 05:56:51;;;;;;;7.78;2.02;;;;;;;22.47;64.42;99838.80;1637728;86;21617;-71
2021/06/19 05:59:18;;;;;;;7.83;2.40;;;;;;;22.50;65.35;99841.42;1645063;86;21528;-72
2021/06/19 06:01:44;;;;;;;9.50;2.02;;;;;;;22.58;66.22;99848.64;1652668;86;21624;-72
2021/06/19 06:04:11;;;;;;;4.22;2.42;;;;;;;22.70;65.96;99846.93;1657145;86;21613;-71
2021/06/19 06:06:38;;;;;;;5.28;2.20;;;;;;;22.71;64.41;99847.94;1656692;86;20934;-71
2021/06/19 06:09:04;;;;;;;9.55;3.05;;;;;;;22.71;64.97;99856.93;1640754;85;21015;-71
2021/06/19 06:11:31;;;;;;;6.47;2.40;;;;;;;22.72;63.49;99853.74;1640464;86;22036;-71
2021/06/19 06:13:58;;;;;;;11.88;2.12;;;;;;;22.69;63.17;99855.12;1628424;86;21419;-70
2021/06/19 06:16:24;;;;;;;10.00;2.37;;;;;;;22.61;64.63;99854.27;1653250;86;21584;-70
2021/06/19 06:18:51;;;;;;;8.68;2.62;;;;;;;22.56;65.42;99853.23;1657201;84;21044;-70
2021/06/19 06:21:17;;;;;;;14.03;2.90;;;;;;;22.55;65.55;99856.41;1625648;87;21041;-71
2021/06/19 06:23:45;;;;;;;5.25;2.60;;;;;;;22.62;66.29;99856.47;1617753;86;21079;-71
2021/06/19 06:26:13;;;;;;;17.60;2.83;;;;;;;22.74;66.32;99858.95;1618041;87;20960;-71
2021/06/19 06:28:41;;;;;;;6.92;2.80;;;;;;;22.88;66.06;99862.47;1612291;88;21063;-73
2021/06/19 06:31:08;;;;;;;9.78;2.67;;;;;;;23.06;66.00;99857.77;1644718;86;21562;-71
2021/06/19 06:33:35;;;;;;;7.85;2.30;;;;;;;23.22;66.30;99858.22;1628228;86;21119;-70
2021/06/19 06:36:01;;;;;;;9.25;2.80;;;;;;;23.39;65.90;99860.30;1598115;88;21175;-72
2021/06/19 06:38:28;;;;;;;6.15;2.50;;;;;;;23.56;65.26;99855.98;1594042;89;21548;-72
2021/06/19 06:40:55;;;;;;;8.45;2.80;;;;;;;23.73;64.09;99859.20;1601865;87;21017;-73
2021/06/19 06:43:21;;;;;;;13.43;3.70;;;;;;;23.83;63.87;99854.22;1630700;87;21162;-71
2021/06/19 06:45:48;;;;;;;8.45;3.42;;;;;;;23.92;64.22;99859.65;1614088;87;21010;-71
2021/06/19 06:48:15;;;;;;;22.32;7.50;;;;;;;24.01;63.93;99854.45;1614051;87;21164;-70
2021/06/19 06:50:43;;;;;;;32.70;11.48;;;;;;;24.05;63.54;99847.45;1629289;87;21043;-72
2021/06/19 06:53:09;;;;;;;12.40;3.50;;;;;;;24.11;64.03;99852.06;1606803;87;21137;-71
2021/06/19 06:55:36;;;;;;;7.47;2.27;;;;;;;24.27;63.28;99851.07;1632416;85;21082;-74
2021/06/19 06:58:03;;;;;;;10.13;2.20;;;;;;;24.38;62.71;99844.05;1609591;87;21032;-73
2021/06/19 07:00:29;;;;;;;5.92;2.25;;;;;;;24.42;60.50;99848.46;1602570;88;21143;-71
2021/06/19 07:02:56;;;;;;;9.70;3.75;;;;;;;24.35;60.69;99849.27;1604394;88;21011;-71
2021/06/19 07:05:25;;;;;;;8.30;2.72;;;;;;;24.31;60.91;99849.06;1594256;88;20960;-72
2021/06/19 07:07:52;;;;;;;22.87;3.05;;;;;;;24.32;60.88;99850.06;1592487;88;21146;-72
2021/06/19 07:10:18;;;;;;;6.00;1.87;;;;;;;24.27;61.07;99851.88;1618658;87;21070;-71
2021/06/19 07:12:45;;;;;;;5.37;2.00;;;;;;;24.17;60.83;99851.87;1618957;87;21106;-72
2021/06/19 07:15:14;;;;;;;4.00;2.20;;;;;;;24.12;61.95;99858.67;1615095;87;21261;-72
2021/06/19 07:17:41;;;;;;;8.98;2.60;;;;;;;24.17;62.03;99861.08;1620441;86;21024;-73
2021/06/19 07:20:10;;;;;;;6.12;2.00;;;;;;;24.19;62.24;99850.86;1632611;87;21007;-70
2021/06/19 07:22:36;;;;;;;15.75;2.05;;;;;;;24.26;63.02;99856.51;1667987;84;21432;-70
2021/06/19 07:25:04;;;;;;;5.37;2.10;;;;;;;24.44;63.71;99856.48;1664873;84;21134;-70
2021/06/19 07:27:31;;;;;;;2.83;1.90;;;;;;;24.67;62.18;99844.23;1665617;84;21036;-70
2021/06/19 07:29:58;;;;;;;3.55;1.90;;;;;;;24.87;62.95;99845.36;1679406;84;20992;-70
2021/06/19 07:32:24;;;;;;;9.35;2.20;;;;;;;25.06;62.25;99839.13;1673327;84;20964;-71
2021/06/19 07:34:51;;;;;;;11.97;1.90;;;;;;;25.19;60.77;99838.88;1672670;84;20941;-71
2021/06/19 07:37:18;;;;;;;7.17;1.90;;;;;;;25.24;59.96;99841.27;1678268;84;21141;-71
2021/06/19 07:39:44;;;;;;;4.08;1.80;;;;;;;25.24;59.43;99839.86;1673043;84;21012;-72
2021/06/19 07:42:11;;;;;;;5.62;1.85;;;;;;;25.20;59.34;99845.49;1660551;84;21035;-71
2021/06/19 07:44:37;;;;;;;8.78;1.77;;;;;;;25.14;59.36;99840.70;1649259;85;21016;-70
2021/06/19 07:47:04;;;;;;;28.45;3.02;;;;;;;25.19;59.35;99838.88;1646325;86;21042;-70
2021/06/19 07:49:32;;;;;;;2.02;1.60;;;;;;;25.35;60.39;99844.83;1651817;86;21163;-72
2021/06/19 07:52:01;;;;;;;4.15;1.70;;;;;;;25.56;58.75;99845.30;1640324;86;21037;-71
2021/06/19 07:54:28;;;;;;;5.75;1.90;;;;;;;25.77;58.91;99842.41;1655652;86;20995;-71
2021/06/19 07:56:54;;;;;;;9.45;1.87;;;;;;;25.94;58.71;99834.45;1651711;84;21144;-71
2021/06/19 07:59:21;;;;;;;8.70;2.40;;;;;;;26.14;58.64;99830.46;1639009;86;21105;-72
2021/06/19 08:01:48;;;;;;;3.45;2.17;;;;;;;26.20;57.12;99833.02;1666995;84;21231;-72
2021/06/19 08:04:15;;;;;;;6.05;2.33;;;;;;;26.23;56.26;99829.38;1676986;84;21004;-71
2021/06/19 08:06:43;;;;;;;3.77;2.27;;;;;;;26.23;57.03;99818.73;1671273;84;21554;-71
2021/06/19 08:09:09;;;;;;;5.33;2.52;;;;;;;26.37;56.66;99820.66;1654309;86;21005;-70
2021/06/19 08:11:36;;;;;;;7.45;2.20;;;;;;;26.50;57.36;99807.67;1652381;86;21052;-72
2021/06/19 08:14:02;;;;;;;9.20;2.47;;;;;;;26.63;56.47;99816.55;1614955;87;21156;-71
2021/06/19 08:16:31;;;;;;;11.93;2.52;;;;;;;26.73;55.46;99808.41;1627054;84;21506;-70
2021/06/19 08:18:58;;;;;;;4.28;2.25;;;;;;;26.71;54.71;99808.03;1678603;83;21088;-69
2021/06/19 08:21:25;;;;;;;6.05;2.30;;;;;;;26.59;54.81;99812.97;1660829;84;21079;-70
2021/06/19 08:23:51;;;;;;;8.00;2.40;;;;;;;26.42;55.77;99810.36;1647468;85;21056;-70
2021/06/19 08:26:18;;;;;;;5.30;1.95;;;;;;;26.41;56.74;99815.80;1614343;86;21142;-71
2021/06/19 08:28:44;;;;;;;9.45;2.77;;;;;;;26.68;55.96;99813.09;1609542;88;21111;-71
2021/06/19 08:31:11;;;;;;;7.05;2.58;;;;;;;26.88;53.88;99806.43;1613793;87;21032;-71
2021/06/19 08:33:38;;;;;;;9.18;3.40;;;;;;;27.09;54.65;99815.27;1613729;87;21052;-71
2021/06/19 08:36:06;;;;;;;5.00;2.42;;;;;;;27.31;53.24;99805.91;1592381;89;21016;-71
2021/06/19 08:38:32;;;;;;;7.33;3.27;;;;;;;27.41;50.82;99791.48;1606654;88;21134;-71
2021/06/19 08:40:59;;;;;;;8.40;3.27;;;;;;;27.26;52.47;99811.41;1607749;87;20974;-71
2021/06/19 08:43:26;;;;;;;4.62;2.72;;;;;;;27.13;53.22;99808.19;1582672;88;21004;-71
2021/06/19 08:45:53;;;;;;;10.98;4.83;;;;;;;27.23;53.74;99805.20;1603236;87;21122;-72
2021/06/19 08:48:20;;;;;;;5.53;3.30;;;;;;;27.50;53.42;99809.48;1598651;89;21110;-71
2021/06/19 08:50:47;;;;;;;6.72;3.20;;;;;;;27.76;51.99;99804.27;1637207;86;21211;-73
2021/06/19 08:53:16;;;;;;;6.92;2.80;;;;;;;27.99;51.51;99812.78;1631644;86;20927;-72
2021/06/19 08:55:42;;;;;;;8.60;2.35;;;;;;;28.10;50.01;99816.84;1614325;87;21113;-69
2021/06/19 08:58:09;;;;;;;5.58;3.20;;;;;;;28.07;50.92;99806.41;1589932;89;20984;-71
2021/06/19 09:00:35;;;;;;;7.90;2.85;;;;;;;28.10;49.76;99804.95;1659708;84;21200;-71
2021/06/19 09:03:02;;;;;;;5.28;3.58;;;;;;;28.20;50.66;99808.20;1658871;84;21098;-71
2021/06/19 09:05:30;;;;;;;6.20;2.33;;;;;;;28.33;50.63;99808.39;1615577;85;21041;-72
2021/06/19 09:07:59;;;;;;;4.70;2.40;;;;;;;28.13;49.97;99808.94;1652814;85;21034;-69
2021/06/19 09:10:35;;;;;;;4.03;2.40;;;;;;;27.86;50.29;99815.40;1646634;86;21055;-70
2021/06/19 09:13:15;;;;;;;5.47;2.58;;;;;;;27.82;51.74;99803.37;1631934;86;21079;-71
2021/06/19 09:15:54;;;;;;;5.25;2.98;;;;;;;28.04;52.02;99805.86;1647557;86;21179;-71
2021/06/19 09:18:30;;;;;;;7.58;2.50;;;;;;;28.52;50.94;99796.97;1649824;84;21013;-71
2021/06/19 09:21:03;;;;;;;5.33;2.50;;;;;;;28.81;49.56;99793.79;1636844;85;21059;-71
2021/06/19 09:23:42;;;;;;;11.00;2.60;;;;;;;28.72;48.58;99787.91;1681592;84;21445;-73
2021/06/19 09:26:19;;;;;;;3.87;2.50;;;;;;;28.72;48.03;99794.17;1663814;84;21524;-71
2021/06/19 09:29:03;;;;;;;7.65;2.35;;;;;;;28.83;48.85;99788.53;1654301;84;21122;-71
2021/06/19 09:31:44;;;;;;;5.45;2.55;;;;;;;28.97;46.78;99786.63;1686143;84;21234;-70
2021/06/19 09:34:25;;;;;;;10.68;3.05;;;;;;;29.03;47.27;99782.86;1668852;84;21005;-71
2021/06/19 09:36:57;;;;;;;4.97;2.60;;;;;;;29.01;46.28;99778.25;1689598;84;21048;-72
2021/06/19 09:39:29;;;;;;;4.80;2.13;;;;;;;28.85;48.87;99785.27;1672138;84;20958;-71
2021/06/19 09:42:02;;;;;;;9.75;2.55;;;;;;;29.03;48.96;99782.06;1657075;84;21083;-72
2021/06/19 09:44:43;;;;;;;4.75;2.67;;;;;;;29.41;48.06;99775.39;1668895;84;21097;-71
2021/06/19 09:47:12;;;;;;;5.28;2.80;;;;;;;29.66;46.37;99772.78;1674746;83;21544;-70
2021/06/19 09:49:42;;;;;;;7.50;2.58;;;;;;;29.70;44.19;99771.29;1658902;84;21522;-71
2021/06/19 09:52:09;;;;;;;2.98;2.30;;;;;;;29.69;45.83;99778.19;1688165;83;21022;-71
2021/06/19 09:54:42;;;;;;;3.60;2.35;;;;;;;29.79;45.89;99773.69;1699082;82;22899;-71
2021/06/19 09:57:13;;;;;;;5.97;2.85;;;;;;;29.86;46.62;99767.86;1697931;83;21493;-72
2021/06/19 09:59:40;;;;;;;4.58;3.00;;;;;;;30.06;47.59;99774.05;1694792;83;21071;-71
2021/06/19 10:02:21;;;;;;;15.75;3.08;;;;;;;30.30;45.87;99764.75;1692448;83;20916;-71
2021/06/19 10:04:52;;;;;;;5.97;2.52;;;;;;;30.53;45.79;99765.94;1687096;83;20924;-73
2021/06/19 10:07:20;;;;;;;6.30;2.40;;;;;;;30.63;45.72;99762.02;1697723;83;21128;-71
2021/06/19 10:09:50;;;;;;;9.68;2.75;;;;;;;30.54;44.52;99761.25;1691852;82;21438;-71
2021/06/19 10:12:31;;;;;;;7.92;2.52;;;;;;;30.31;46.78;99754.39;1657984;83;21495;-75
2021/06/19 10:15:06;;;;;;;10.50;2.77;;;;;;;30.36;45.88;99758.72;1667326;83;21582;-73
2021/06/19 10:17:41;;;;;;;6.33;2.87;;;;;;;30.48;43.65;99762.23;1652927;84;21122;-74
2021/06/19 10:20:12;;;;;;;8.58;3.25;;;;;;;30.52;44.35;99761.52;1655719;84;21092;-72
2021/06/19 10:22:40;;;;;;;3.43;2.73;;;;;;;30.53;43.68;99756.03;1634246;86;21086;-72
2021/06/19 10:25:10;;;;;;;3.75;2.58;;;;;;;30.55;42.54;99753.55;1652858;84;21004;-71
2021/06/19 10:27:46;;;;;;;11.78;3.02;;;;;;;30.44;43.43;99758.70;1649038;84;21064;-72
2021/06/19 10:30:14;;;;;;;3.72;3.17;;;;;;;30.37;44.10;99760.31;1663264;84;21048;-72
2021/06/19 10:32:50;;;;;;;4.33;2.90;;;;;;;30.25;44.95;99758.20;1652605;84;21741;-71
2021/06/19 10:35:21;;;;;;;4.75;3.33;;;;;;;30.31;44.75;99754.39;1642430;85;21023;-71
2021/06/19 10:37:49;;;;;;;7.75;2.80;;;;;;;30.52;43.85;99751.61;1641644;84;20921;-72
2021/06/19 10:40:24;;;;;;;5.35;2.75;;;;;;;30.45;43.23;99755.42;1642738;84;21067;-73
2021/06/19 10:42:54;;;;;;;6.58;3.60;;;;;;;30.15;43.19;99765.11;1650248;84;21116;-72
2021/06/19 10:45:29;;;;;;;5.22;3.33;;;;;;;29.61;44.54;99752.71;1649968;84;22172;-72
2021/06/19 10:48:07;;;;;;;6.55;3.72;;;;;;;29.30;45.98;99748.77;1659249;84;21073;-69
2021/06/19 10:50:39;;;;;;;7.17;3.80;;;;;;;29.14;46.55;99744.48;1652165;84;21090;-70
2021/06/19 10:53:12;;;;;;;4.08;3.35;;;;;;;29.40;47.10;99744.90;1674879;84;21226;-71
2021/06/19 10:55:51;;;;;;;5.72;3.45;;;;;;;29.67;47.38;99748.92;1619836;84;21715;-71
2021/06/19 10:58:33;;;;;;;4.20;3.37;;;;;;;29.93;46.06;99747.70;1656757;84;21180;-71
2021/06/19 11:01:04;;;;;;;6.72;3.42;;;;;;;30.08;44.99;99744.06;1627208;86;21181;-71
2021/06/19 11:03:50;;;;;;;4.65;3.37;;;;;;;30.29;45.74;99740.50;1644632;84;20996;-72
2021/06/19 11:06:30;;;;;;;6.90;3.00;;;;;;;30.52;42.60;99741.07;1649852;84;21146;-72
2021/06/19 11:09:07;;;;;;;8.98;3.33;;;;;;;30.42;40.54;99752.07;1643335;84;21096;-72
2021/06/19 11:12:01;;;;;;;7.37;3.67;;;;;;;30.08;42.63;99745.48;1674127;84;21183;-70
2021/06/19 11:14:47;;;;;;;5.12;3.50;;;;;;;29.93;43.53;99751.94;1658125;84;21028;-72
2021/06/19 11:17:25;;;;;;;7.83;3.50;;;;;;;29.93;43.18;99755.56;1651137;84;21541;-70
2021/06/19 11:20:02;;;;;;;8.53;3.80;;;;;;;29.63;41.95;99749.63;1661710;84;21138;-73
2021/06/19 11:22:40;;;;;;;5.28;3.77;;;;;;;29.19;42.95;99750.41;1645995;84;20919;-71
2021/06/19 11:25:41;;;;;;;4.62;3.50;;;;;;;28.76;43.50;99748.30;1670044;84;21961;-70
2021/06/19 11:28:26;;;;;;;7.85;3.65;;;;;;;28.48;45.64;99748.23;1632183;86;21015;-71
2021/06/19 11:30:55;;;;;;;7.95;3.67;;;;;;;28.34;45.74;99743.64;1655431;84;21029;-71
2021/06/19 11:33:26;;;;;;;5.75;4.10;;;;;;;28.40;47.00;99752.42;1662619;84;21052;-72
2021/06/19 11:36:06;;;;;;;;;;;;;;;28.52;48.21;99756.02;1656407;84;21064;-70
2021/06/19 11:38:57;;;;;;;6.92;4.10;;;;;;;28.64;47.58;99754.59;1658976;84;21266;-73
2021/06/19 11:41:35;;;;;;;4.10;3.70;;;;;;;28.60;46.91;99746.19;1624827;85;20996;-73